DW5567 Weather Reports


Display with metric or nautical units.
time (UTC)temp
F
wind
direction
speed
MPH
gust
MPH
rain 1hr
in
rain 24hr
in
rain mn
in
humidity
%
barometer
mb
20210624214615 80 57 3.0 7.0 0.00 0.07 0.07 83 1017.3
20210624213025 80 49 3.0 9.0 0.00 0.07 0.07 82 1017.4
20210624211523 81 63 5.0 9.0 0.00 0.07 0.07 82 1017.5
20210624210022 81 61 2.0 6.0 0.00 0.07 0.07 82 1017.9
20210624204532 80 57 3.0 6.0 0.00 0.07 0.07 81 1018.1
20210624203014 80 70 2.0 8.0 0.00 0.07 0.07 83 1018.2
20210624201517 79 65 4.0 7.0 0.00 0.07 0.07 83 1018.3
20210624200034 78 60 2.0 5.0 0.01 0.07 0.07 86 1018.4
20210624194521 78 138 0.0 3.0 0.01 0.07 0.07 86 1018.5
20210624193014 77 160 2.0 4.0 0.01 0.07 0.07 85 1018.4
20210624191513 78 64 1.0 3.0 0.01 0.07 0.07 85 1018.5
20210624190024 79 93 2.0 6.0 0.00 0.06 0.06 83 1018.8
20210624184519 80 78 1.0 9.0 0.00 0.06 0.06 82 1019.4
20210624183014 81 160 2.0 11.0 0.00 0.06 0.06 77 1019.5
20210624181506 81 84 4.0 10.0 0.00 0.06 0.06 81 1019.5
20210624180006 80 61 4.0 11.0 0.00 0.06 0.06 83 1019.9
20210624174514 81 49 4.0 15.0 0.00 0.06 0.06 82 1020.0
20210624173003 82 100 6.0 12.0 0.00 0.06 0.06 82 1020.1
20210624171622 82 41 4.0 9.0 0.00 0.06 0.06 82 1020.3
20210624170144 82 44 4.0 7.0 0.00 0.06 0.06 82 1020.2
20210624164659 81 71 5.0 9.0 0.00 0.06 0.06 83 1020.4
20210624163116 80 359 2.0 6.0 0.00 0.06 0.06 85 1020.2
20210624161621 79 27 2.0 4.0 0.00 0.06 0.06 85 1020.0
20210624160123 78 46 1.0 6.0 0.00 0.06 0.06 85 1020.0
20210624154627 77 58 2.0 4.0 0.00 0.06 0.06 87 1020.0
20210624153106 77 58 3.0 4.0 0.00 0.06 0.06 86 1020.3
20210624151607 77 66 1.0 3.0 0.00 0.06 0.06 88 1020.0
20210624150108 76 68 1.0 2.0 0.00 0.06 0.06 88 1020.1
20210624144614 77 36 0.0 0.0 0.01 0.06 0.06 90 1020.4
20210624143113 76 359 0.0 4.0 0.02 0.06 0.06 90 1020.3
20210624141614 76 10 2.0 4.0 0.02 0.06 0.06 90 1020.3
20210624140151 76 73 2.0 6.0 0.02 0.06 0.06 92 1020.1
20210624134637 75 333 0.0 2.0 0.02 0.05 0.05 92 1019.9
20210624133057 75 57 0.0 0.0 0.02 0.04 0.04 91 1020.1
20210624130112 75 84 2.0 6.0 0.04 0.04 0.04 91 1019.7
20210624124559 75 146 3.0 12.0 0.03 0.03 0.03 90 1019.6
20210624123058 76 166 2.0 8.0 0.02 0.02 0.02 90 1019.7
20210624121552 0 0.0 0.0 0.00 0.00 0.00 1019.4
20210624120053 0 0.0 0.0 0.00 0.00 0.00 1019.0
20210624114526 0 0.0 0.0 0.00 0.00 0.00 1018.5
20210624113052 0 0.0 0.0 0.00 0.00 0.00 1018.5
20210624111543 0 0.0 0.0 0.00 0.00 0.00 1018.4
20210624110040 0 0.0 0.0 0.00 0.00 0.00 1018.4
20210624104547 0 0.0 0.0 0.00 0.00 0.00 1018.2
20210624103024 0 0.0 0.0 0.00 0.00 0.00 1018.3
20210624101717 0 0.0 0.0 0.00 0.00 0.00 1018.2
20210624100231 0 0.0 0.0 0.00 0.00 0.00 1018.3
20210624094636 0 0.0 0.0 0.00 0.00 0.00 1018.3
20210624093106 0 0.0 0.0 0.00 0.00 0.00 1018.4
20210624091601 0 0.0 0.0 0.00 0.00 0.00 1018.1
20210624090125 0 0.0 0.0 0.00 0.00 0.00 1017.9
20210624084543 0 0.0 0.0 0.00 0.00 0.00 1018.0
20210624083104 0 0.0 0.0 0.00 0.00 0.00 1018.0
20210624081533 0 0.0 0.0 0.00 0.00 0.00 1017.9
20210624080031 0 0.0 0.0 0.00 0.00 0.00 1017.8
20210624074529 0 0.0 0.0 0.00 0.00 0.00 1017.8
20210624073033 78 54 2.0 5.0 0.00 0.00 0.00 85 1018.0
20210624071513 79 56 0.0 3.0 0.00 0.00 0.00 84 1017.9
20210624070022 80 62 2.0 4.0 0.00 0.00 0.00 84 1018.0
20210624064519 80 72 1.0 5.0 0.00 0.00 0.00 84 1018.2
20210624063145 80 78 4.0 7.0 0.00 0.00 0.00 83 1018.5
20210624061737 80 70 1.0 6.0 0.00 0.00 0.00 83 1018.9
20210624060104 81 70 2.0 7.0 0.00 0.00 0.00 81 1018.9
20210624054638 80 61 2.0 6.0 0.00 0.00 0.00 81 1019.0
20210624053141 81 74 2.0 6.0 0.00 0.00 0.00 83 1019.3
20210624051554 80 67 3.0 7.0 0.00 0.00 0.00 83 1019.4
20210624050220 80 63 4.0 6.0 0.00 0.00 0.00 83 1019.5
20210624044609 80 68 3.0 9.0 0.00 0.01 0.00 83 1019.6
20210624043041 81 61 5.0 9.0 0.00 0.01 0.00 81 1020.0
20210624041601 80 61 4.0 11.0 0.00 0.01 0.00 83 1019.9
20210624040102 80 76 5.0 10.0 0.00 0.01 0.00 84 1020.0
20210624034558 80 70 5.0 9.0 0.00 0.01 0.01 85 1020.1
20210624033057 79 43 1.0 3.0 0.00 0.01 0.01 85 1020.1
20210624031554 79 20 0.0 4.0 0.00 0.01 0.01 84 1020.2
20210624030058 79 9 0.0 3.0 0.00 0.01 0.01 84 1020.0
20210624024556 79 23 0.0 1.0 0.00 0.01 0.01 83 1019.9
20210624023047 79 15 1.0 3.0 0.00 0.01 0.01 83 1019.9
20210624021635 79 332 0.0 2.0 0.00 0.01 0.01 83 1019.9
20210624020054 79 351 1.0 5.0 0.00 0.01 0.01 83 1019.8
20210624014628 79 13 0.0 2.0 0.00 0.01 0.01 82 1019.7
20210624013055 79 1 0.0 2.0 0.00 0.01 0.01 82 1019.5
20210624011600 79 19 1.0 4.0 0.00 0.01 0.01 82 1019.9
20210624010041 79 13 0.0 5.0 0.00 0.01 0.01 82 1019.7
20210624004625 79 340 1.0 3.0 0.00 0.01 0.01 81 1019.6
20210624003032 79 22 2.0 4.0 0.00 0.01 0.01 81 1019.5
20210624001558 80 313 2.0 5.0 0.00 0.01 0.01 81 1019.5
20210624000031 80 358 1.0 7.0 0.00 0.01 0.01 81 1019.7
20210623234548 80 4 1.0 5.0 0.00 0.01 0.01 80 1019.8
20210623233040 80 328 2.0 5.0 0.00 0.01 0.01 78 1019.7
20210623231547 80 354 2.0 7.0 0.00 0.01 0.01 77 1019.6
20210623230040 80 336 2.0 6.0 0.00 0.01 0.01 77 1019.5
20210623224618 81 318 2.0 6.0 0.00 0.01 0.01 75 1019.7
20210623223054 81 321 0.0 7.0 0.00 0.01 0.01 74 1019.9
20210623221525 82 303 2.0 6.0 0.00 0.01 0.01 73 1020.0
20210623220039 82 338 1.0 6.0 0.00 0.01 0.01 74 1019.9